Terminal Aerodrome Forecast
Issued by NWS Bismarck, ND

Home | Current Version | Previous Version | Text Only | Print | Product List | Glossary On
Versions: 1 2 3 4 5 6 7 8 9 10 11 12 13 14
369
FTUS43 KBIS 251138
TAFISN
TAF
KISN 251138Z 2512/2612 21006KT P6SM SKC
     FM251600 22012G20KT P6SM FEW130 SCT250
     FM251900 25014G22KT P6SM SCT110 BKN250
     FM252000 28015G23KT P6SM SCT110 BKN250
     FM252300 34017G25KT P6SM VCTS OVC080CB
     FM260300 34014G22KT P6SM BKN100
     FM260900 33006KT P6SM SKC=

USA.gov is the U.S. government's official web portal to all federal, state and local government web resources and services.